createdAt,value
2019-05-02T00:02:12.649Z,69.65
2019-05-02T00:04:55.915Z,73.40
2019-05-02T00:07:31.999Z,68.28
2019-05-02T00:15:15.225Z,79.47
2019-05-02T00:17:51.420Z,64.92
2019-05-02T00:23:03.119Z,64.17
2019-05-02T00:25:47.292Z,60.98
2019-05-02T00:28:23.757Z,61.70
2019-05-02T00:31:07.383Z,69.77
2019-05-02T00:33:58.411Z,72.22
2019-05-02T00:36:41.201Z,68.02
2019-05-02T00:39:13.619Z,77.35
2019-05-02T00:41:53.855Z,73.55
2019-05-02T00:44:46.919Z,64.87
2019-05-02T00:47:59.095Z,59.88
2019-05-02T00:50:40.576Z,55.30
2019-05-02T00:55:41.368Z,61.75
2019-05-02T00:58:17.131Z,64.60
2019-05-02T01:01:18.329Z,75.83
2019-05-02T01:03:52.106Z,70.57
2019-05-02T01:06:32.715Z,67.42
2019-05-02T01:09:01.094Z,81.80
2019-05-02T01:11:44.464Z,69.80
2019-05-02T01:14:31.869Z,73.67
2019-05-02T01:17:10.471Z,65.83
2019-05-02T01:19:38.085Z,68.78
2019-05-02T01:22:10.377Z,54.35
2019-05-02T01:24:50.668Z,56.23
2019-05-02T01:27:20.252Z,57.65
2019-05-02T01:30:27.432Z,53.83
2019-05-02T01:36:11.877Z,50.73
2019-05-02T01:38:55.899Z,50.80
2019-05-02T01:41:31.708Z,53.63
2019-05-02T01:44:15.476Z,49.48
2019-05-02T01:46:54.100Z,56.80
2019-05-02T01:49:35.071Z,54.13
2019-05-02T01:52:10.684Z,51.65
2019-05-02T01:54:53.348Z,57.20
2019-05-02T01:57:28.920Z,55.43
2019-05-02T02:00:11.491Z,59.53
2019-05-02T02:02:47.827Z,54.80
2019-05-02T02:05:32.252Z,54.80
2019-05-02T02:08:09.127Z,53.35
2019-05-02T02:10:56.474Z,59.77
2019-05-02T02:13:31.295Z,61.90
2019-05-02T02:16:13.909Z,58.28
2019-05-02T02:18:58.984Z,49.90
2019-05-02T02:21:47.096Z,51.40
2019-05-02T02:24:21.259Z,66.40
2019-05-02T02:27:03.565Z,57.48
2019-05-02T02:29:31.873Z,54.15
2019-05-02T02:32:20.135Z,52.93
2019-05-02T02:35:09.920Z,52.88
2019-05-02T02:37:53.061Z,50.28
2019-05-02T02:40:33.759Z,61.45
2019-05-02T02:43:32.172Z,58.33
2019-05-02T02:46:13.706Z,56.63
2019-05-02T02:48:55.890Z,56.15
2019-05-02T02:51:32.273Z,52.43
2019-05-02T02:54:15.249Z,58.83
2019-05-02T02:56:51.561Z,55.85
2019-05-02T02:59:34.507Z,58.85
2019-05-02T03:02:12.087Z,54.45
2019-05-02T03:04:53.816Z,55.28
2019-05-02T03:07:29.995Z,63.58
2019-05-02T03:10:12.436Z,55.52
2019-05-02T03:13:06.627Z,59.77
2019-05-02T03:18:26.917Z,61.30
2019-05-02T03:26:07.988Z,57.40
2019-05-02T03:28:57.239Z,64.58
2019-05-02T03:31:30.632Z,62.55
2019-05-02T03:36:39.932Z,59.53
2019-05-02T03:39:21.422Z,59.10
2019-05-02T03:41:55.745Z,61.75
2019-05-02T03:44:33.989Z,57.50
2019-05-02T03:47:09.969Z,58.15
2019-05-02T03:49:52.704Z,61.80
2019-05-02T03:52:29.088Z,62.08
2019-05-02T03:55:15.266Z,80.00
2019-05-02T03:57:43.655Z,63.98
2019-05-02T04:00:26.914Z,66.60
2019-05-02T04:03:10.458Z,59.03
2019-05-02T04:05:46.424Z,65.35
2019-05-02T04:08:30.976Z,62.65
2019-05-02T04:11:39.081Z,61.28
2019-05-02T04:14:36.586Z,63.17
2019-05-02T04:16:57.340Z,65.32
2019-05-02T04:19:28.589Z,65.52
2019-05-02T04:22:11.873Z,69.10
2019-05-02T04:24:54.456Z,75.10
2019-05-02T04:27:35.735Z,80.95
2019-05-02T04:30:11.269Z,82.70
2019-05-02T04:32:49.908Z,74.80
2019-05-02T04:35:38.180Z,74.72
2019-05-02T04:38:20.428Z,69.60
2019-05-02T04:40:51.681Z,76.80
2019-05-02T04:43:40.767Z,84.95
2019-05-02T04:46:22.158Z,86.47
2019-05-02T04:48:58.889Z,82.42
2019-05-02T04:51:37.961Z,76.70
2019-05-02T04:56:53.126Z,77.40
2019-05-02T05:02:01.739Z,77.35
2019-05-02T05:04:42.388Z,75.57
2019-05-02T05:07:22.262Z,76.97
2019-05-02T05:10:02.993Z,80.40
2019-05-02T05:15:01.144Z,85.47
2019-05-02T05:17:43.789Z,75.70
2019-05-02T05:20:15.685Z,86.78
2019-05-02T05:23:03.258Z,78.00
2019-05-02T05:25:37.948Z,84.42
2019-05-02T05:28:20.657Z,88.20
2019-05-02T05:30:51.937Z,87.35
2019-05-02T05:33:33.753Z,86.20
2019-05-02T05:36:19.811Z,89.17
2019-05-02T05:38:53.789Z,93.30
2019-05-02T05:41:37.664Z,94.20
2019-05-02T05:44:13.725Z,92.00
2019-05-02T05:46:42.678Z,94.77
2019-05-02T05:49:17.847Z,93.27
2019-05-02T05:52:02.284Z,99.62
2019-05-02T05:54:25.862Z,99.50
2019-05-02T05:57:12.083Z,100.15
2019-05-02T06:00:03.985Z,91.55
2019-05-02T06:05:45.466Z,97.33
2019-05-02T06:08:21.940Z,106.30
2019-05-02T06:11:04.899Z,106.03
2019-05-02T06:13:48.471Z,103.70
2019-05-02T06:16:28.182Z,110.65
2019-05-02T06:19:20.510Z,118.13
2019-05-02T06:24:30.058Z,104.20
2019-05-02T06:27:12.770Z,102.65
2019-05-02T06:30:02.880Z,99.28
2019-05-02T06:32:49.739Z,100.05
2019-05-02T06:35:23.398Z,106.92
2019-05-02T06:38:05.927Z,102.00
2019-05-02T06:40:44.742Z,101.97
2019-05-02T06:45:57.312Z,103.72
2019-05-02T06:48:32.914Z,103.83
2019-05-02T06:51:19.603Z,101.87
2019-05-02T06:53:54.597Z,110.37
2019-05-02T06:56:37.241Z,96.55
2019-05-02T06:59:18.616Z,93.90
2019-05-02T07:04:25.527Z,83.37
2019-05-02T07:07:13.357Z,87.85
2019-05-02T07:09:50.104Z,89.62
2019-05-02T07:15:01.637Z,76.85
2019-05-02T07:17:52.466Z,73.92
2019-05-02T07:23:04.831Z,74.35
2019-05-02T07:25:43.951Z,70.17
2019-05-02T07:28:26.474Z,68.78
2019-05-02T07:31:06.688Z,62.40
2019-05-02T07:33:50.961Z,61.18
2019-05-02T07:36:31.196Z,57.38
2019-05-02T07:39:14.394Z,66.13
2019-05-02T07:41:42.982Z,58.37
2019-05-02T07:44:27.114Z,68.03
2019-05-02T07:47:11.681Z,62.67
2019-05-02T07:49:47.604Z,61.27
2019-05-02T07:52:33.679Z,66.40
2019-05-02T07:55:10.179Z,84.37
2019-05-02T07:57:38.024Z,82.47
2019-05-02T08:00:07.172Z,80.23
2019-05-02T08:02:49.882Z,76.63
2019-05-02T08:05:21.640Z,90.07
2019-05-02T08:08:03.619Z,85.60
2019-05-02T08:10:48.700Z,90.87
2019-05-02T08:13:25.580Z,87.87
2019-05-02T08:16:22.416Z,77.77
2019-05-02T08:21:36.694Z,91.60
2019-05-02T08:24:07.642Z,84.47
2019-05-02T08:27:00.842Z,85.07
2019-05-02T08:29:30.617Z,93.43
2019-05-02T08:32:12.678Z,102.80
2019-05-02T08:34:51.669Z,93.33
2019-05-02T08:37:35.438Z,104.43
2019-05-02T08:40:12.955Z,95.17
2019-05-02T08:42:56.095Z,99.03
2019-05-02T08:45:32.955Z,102.20
2019-05-02T08:48:16.649Z,93.90
2019-05-02T08:50:53.232Z,104.37
2019-05-02T08:56:05.342Z,96.70
2019-05-02T08:58:44.861Z,95.70
2019-05-02T09:01:34.999Z,103.10
2019-05-02T09:04:05.033Z,90.50
2019-05-02T09:11:41.504Z,97.07
2019-05-02T09:14:24.684Z,86.80
2019-05-02T09:17:14.327Z,82.77
2019-05-02T09:19:59.596Z,86.63
2019-05-02T09:22:32.767Z,95.50
2019-05-02T09:25:12.847Z,96.27
2019-05-02T09:27:55.872Z,83.47
2019-05-02T09:30:35.561Z,95.40
2019-05-02T09:38:13.683Z,86.80
2019-05-02T09:43:29.203Z,95.83
2019-05-02T09:46:21.703Z,93.67
2019-05-02T09:49:11.975Z,91.90
2019-05-02T09:51:59.094Z,97.83
2019-05-02T09:54:32.135Z,85.40
2019-05-02T09:57:15.731Z,86.83
2019-05-02T09:59:55.727Z,84.50
2019-05-02T10:02:36.698Z,82.20
2019-05-02T10:05:12.751Z,90.63
2019-05-02T10:08:03.075Z,83.80
2019-05-02T10:10:37.031Z,78.37
2019-05-02T10:18:25.556Z,77.60
2019-05-02T10:20:58.758Z,76.73
2019-05-02T10:23:35.784Z,83.97
2019-05-02T10:28:53.514Z,74.80
2019-05-02T10:31:42.187Z,74.03
2019-05-02T10:34:18.668Z,76.90
2019-05-02T10:36:58.920Z,72.03
2019-05-02T10:42:12.452Z,81.00
2019-05-02T10:44:48.269Z,71.67
2019-05-02T10:47:30.365Z,69.00
2019-05-02T10:50:16.903Z,68.10
2019-05-02T10:53:11.212Z,71.50
2019-05-02T10:55:35.817Z,69.10
2019-05-02T10:58:26.143Z,74.10
2019-05-02T11:00:52.257Z,76.87
2019-05-02T11:03:47.218Z,74.90
2019-05-02T11:06:22.782Z,75.77
2019-05-02T11:09:06.541Z,71.10
2019-05-02T11:11:42.976Z,73.33
2019-05-02T11:14:36.384Z,70.63
2019-05-02T11:17:15.941Z,70.50
2019-05-02T11:20:17.666Z,70.70
2019-05-02T11:22:54.715Z,71.00
2019-05-02T11:28:08.694Z,67.33
2019-05-02T11:31:02.677Z,71.17
2019-05-02T11:33:53.614Z,69.17
2019-05-02T11:36:32.796Z,70.90
2019-05-02T11:39:24.692Z,67.60
2019-05-02T11:41:45.990Z,70.90
2019-05-02T11:44:35.462Z,69.50
2019-05-02T11:47:24.901Z,65.27
2019-05-02T11:49:59.760Z,66.33
2019-05-02T11:52:33.029Z,68.77
2019-05-02T11:55:18.763Z,67.47
2019-05-02T11:57:45.006Z,63.97
2019-05-02T12:00:32.361Z,62.67
2019-05-02T12:03:23.132Z,63.63
2019-05-02T12:06:01.834Z,63.77
2019-05-02T12:08:39.510Z,58.70
2019-05-02T12:11:25.335Z,58.43
2019-05-02T12:14:05.433Z,68.23
2019-05-02T12:16:54.168Z,54.83
2019-05-02T12:19:36.371Z,55.33
2019-05-02T12:22:16.985Z,56.50
2019-05-02T12:24:45.284Z,52.87
2019-05-02T12:27:31.866Z,52.17
2019-05-02T12:30:03.115Z,53.13
2019-05-02T12:32:46.992Z,51.43
2019-05-02T12:35:36.251Z,52.90
2019-05-02T12:38:24.217Z,55.70
2019-05-02T12:41:00.023Z,63.17
2019-05-02T12:43:47.755Z,50.63
2019-05-02T12:46:24.861Z,51.03
2019-05-02T12:48:59.683Z,51.60
2019-05-02T12:51:35.361Z,54.67
2019-05-02T12:54:17.692Z,52.60
2019-05-02T12:56:53.397Z,56.33
2019-05-02T12:59:37.181Z,53.90
2019-05-02T13:02:21.944Z,55.70
2019-05-02T13:05:13.152Z,56.33
2019-05-02T13:07:42.792Z,54.17
2019-05-02T13:13:05.409Z,48.23
2019-05-02T13:15:51.916Z,39.63
2019-05-02T13:18:34.793Z,34.83
2019-05-02T13:21:17.269Z,39.00
2019-05-02T13:24:14.856Z,44.40
2019-05-02T13:26:59.550Z,37.43
2019-05-02T13:29:35.149Z,41.23
2019-05-02T13:32:42.707Z,41.73
2019-05-02T13:35:17.857Z,47.17
2019-05-02T13:40:46.686Z,43.47
2019-05-02T13:43:18.658Z,37.50
2019-05-02T13:46:22.864Z,39.63
2019-05-02T13:54:54.800Z,38.53
2019-05-02T13:57:34.957Z,39.97
2019-05-02T14:07:48.257Z,38.47
2019-05-02T14:10:39.669Z,36.23
2019-05-02T14:13:17.870Z,32.70
2019-05-02T14:16:07.169Z,36.37
2019-05-02T14:18:50.136Z,35.57
2019-05-02T14:21:27.295Z,39.40
2019-05-02T14:24:09.309Z,35.83
2019-05-02T14:26:46.375Z,39.13
2019-05-02T14:32:02.692Z,31.13
2019-05-02T14:34:54.843Z,30.33
2019-05-02T14:37:43.145Z,28.70
2019-05-02T14:40:32.247Z,31.53
2019-05-02T14:45:43.908Z,34.00
2019-05-02T14:48:19.283Z,35.90
2019-05-02T14:51:01.733Z,34.30
2019-05-02T14:53:43.540Z,41.33
2019-05-02T14:56:46.264Z,35.37
2019-05-02T15:02:07.578Z,36.47
2019-05-02T15:04:49.842Z,40.70
2019-05-02T15:07:28.683Z,42.70
2019-05-02T15:21:36.743Z,54.90
2019-05-02T15:24:27.760Z,55.10
2019-05-02T15:27:13.645Z,51.23
2019-05-02T15:29:47.241Z,51.50
2019-05-02T15:32:57.863Z,52.27
2019-05-02T15:35:52.549Z,55.57
2019-05-02T15:38:37.088Z,56.50
2019-05-02T15:41:13.574Z,50.60
2019-05-02T15:43:56.221Z,55.63
2019-05-02T15:46:34.375Z,52.57
2019-05-02T15:49:17.354Z,53.50
2019-05-02T15:51:53.783Z,53.47
2019-05-02T15:54:36.731Z,52.90
2019-05-02T15:57:18.756Z,56.57
2019-05-02T15:59:57.499Z,51.53
2019-05-02T16:06:30.919Z,55.80
2019-05-02T16:08:54.554Z,57.27
2019-05-02T16:11:37.406Z,58.57
2019-05-02T16:14:22.582Z,58.43
2019-05-02T16:17:05.745Z,58.63
2019-05-02T16:19:46.755Z,73.10
2019-05-02T16:22:30.702Z,75.83
2019-05-02T16:25:07.018Z,70.50
2019-05-02T16:27:52.736Z,120.00
2019-05-02T16:30:31.836Z,76.17
2019-05-02T16:35:46.388Z,51.77
2019-05-02T16:38:22.122Z,91.73
2019-05-02T16:41:09.867Z,54.57
2019-05-02T16:43:37.828Z,50.30
2019-05-02T16:46:21.711Z,53.23
2019-05-02T16:49:15.687Z,53.27
2019-05-02T16:54:25.059Z,78.97
2019-05-02T16:57:01.706Z,59.67
2019-05-02T16:59:44.286Z,63.87
2019-05-02T17:02:21.855Z,64.30
2019-05-02T17:07:29.362Z,66.07
2019-05-02T17:10:29.951Z,69.50
2019-05-02T17:13:00.358Z,63.13
2019-05-02T17:15:43.884Z,61.63
2019-05-02T17:18:32.726Z,56.70
2019-05-02T17:21:16.354Z,54.47
2019-05-02T17:23:52.438Z,52.80
2019-05-02T17:29:03.339Z,50.30
2019-05-02T17:31:40.002Z,47.63
2019-05-02T17:34:23.025Z,44.70
2019-05-02T17:37:06.215Z,51.33
2019-05-02T17:39:46.068Z,47.53
2019-05-02T17:42:25.695Z,43.80
2019-05-02T17:47:36.124Z,43.97
2019-05-02T17:50:49.461Z,39.67
2019-05-02T17:53:25.001Z,41.90
2019-05-02T17:58:35.880Z,48.23
2019-05-02T18:01:33.327Z,43.30
2019-05-02T18:04:21.535Z,42.93
2019-05-02T18:09:35.032Z,39.43
2019-05-02T18:12:16.185Z,36.23
2019-05-02T18:17:27.451Z,42.80
2019-05-02T18:20:12.473Z,48.27
2019-05-02T18:22:52.027Z,39.00
2019-05-02T18:25:36.581Z,62.23
2019-05-02T18:28:26.592Z,44.10
2019-05-02T18:31:09.861Z,42.20
2019-05-02T18:33:48.783Z,35.17
2019-05-02T18:41:31.871Z,40.30
2019-05-02T18:44:21.897Z,42.80
2019-05-02T18:47:06.161Z,48.80
2019-05-02T18:49:48.407Z,39.63
2019-05-02T18:52:35.592Z,36.83
2019-05-02T18:55:01.892Z,44.40
2019-05-02T18:57:48.684Z,39.43
2019-05-02T19:00:27.482Z,47.77
2019-05-02T19:03:13.339Z,47.33
2019-05-02T19:06:03.403Z,42.27
2019-05-02T19:08:50.282Z,41.70
2019-05-02T19:11:31.419Z,35.53
2019-05-02T19:14:16.560Z,39.47
2019-05-02T19:16:52.109Z,37.47
2019-05-02T19:21:53.635Z,49.07
2019-05-02T19:24:34.890Z,54.03
2019-05-02T19:32:28.412Z,43.37
2019-05-02T19:35:06.930Z,46.00
2019-05-02T19:40:20.130Z,53.03
2019-05-02T19:43:07.820Z,48.90
2019-05-02T19:45:45.791Z,48.17
2019-05-02T19:48:14.106Z,46.70
2019-05-02T19:50:56.613Z,50.00
2019-05-02T19:53:33.260Z,51.43
2019-05-02T19:56:09.523Z,53.80
2019-05-02T19:58:46.835Z,45.87
2019-05-02T20:04:02.383Z,49.23
2019-05-02T20:06:51.465Z,43.33
2019-05-02T20:09:29.137Z,48.17
2019-05-02T20:12:11.657Z,45.93
2019-05-02T20:14:54.261Z,50.03
2019-05-02T20:17:29.845Z,53.30
2019-05-02T20:20:15.908Z,47.70
2019-05-02T20:22:52.444Z,45.80
2019-05-02T20:30:32.876Z,54.80
2019-05-02T20:33:16.403Z,54.30
2019-05-02T20:35:58.950Z,58.73
2019-05-02T20:38:27.893Z,48.13
2019-05-02T20:41:10.011Z,47.90
2019-05-02T20:43:52.714Z,49.40
2019-05-02T20:46:32.617Z,52.37
2019-05-02T20:49:01.978Z,54.10
2019-05-02T20:51:44.963Z,49.57
2019-05-02T20:54:23.826Z,52.10
2019-05-02T20:57:08.056Z,52.93
2019-05-02T20:59:36.461Z,50.70
2019-05-02T21:02:19.611Z,47.87
2019-05-02T21:04:54.545Z,55.33
2019-05-02T21:08:01.875Z,45.37
2019-05-02T21:10:41.671Z,41.30
2019-05-02T21:15:52.422Z,37.97
2019-05-02T21:18:35.836Z,46.60
2019-05-02T21:21:12.775Z,44.97
2019-05-02T21:23:55.774Z,45.87
2019-05-02T21:26:32.895Z,42.53
2019-05-02T21:29:16.797Z,39.60
2019-05-02T21:31:53.457Z,35.77
2019-05-02T21:34:36.064Z,42.20
2019-05-02T21:37:12.107Z,35.77
2019-05-02T21:39:39.746Z,34.30
2019-05-02T21:44:48.917Z,33.20
2019-05-02T21:47:32.563Z,29.63
2019-05-02T21:50:21.754Z,26.40
2019-05-02T21:53:22.046Z,23.83
2019-05-02T21:56:24.967Z,30.10
2019-05-02T21:59:12.356Z,23.20
2019-05-02T22:04:26.324Z,17.50
2019-05-02T22:07:08.896Z,23.13
2019-05-02T22:09:36.488Z,24.00
2019-05-02T22:12:18.697Z,19.70
2019-05-02T22:14:55.366Z,17.00
2019-05-02T22:17:37.728Z,17.80
2019-05-02T22:20:13.334Z,16.17
2019-05-02T22:22:56.138Z,21.37
2019-05-02T22:25:32.854Z,16.97
2019-05-02T22:28:16.014Z,16.02
2019-05-02T22:30:44.298Z,19.05
2019-05-02T22:33:12.580Z,19.77
2019-05-02T22:35:55.883Z,17.30
2019-05-02T22:41:32.753Z,15.47
2019-05-02T22:44:08.555Z,17.32
2019-05-02T22:46:52.940Z,19.97
2019-05-02T22:49:28.722Z,20.62
2019-05-02T22:54:39.287Z,21.70
2019-05-02T22:57:14.461Z,18.85
2019-05-02T22:59:58.069Z,17.77
2019-05-02T23:02:46.749Z,23.55
2019-05-02T23:05:29.016Z,18.70
2019-05-02T23:08:05.175Z,18.80
2019-05-02T23:10:47.631Z,21.57
2019-05-02T23:13:24.685Z,17.70
2019-05-02T23:16:06.967Z,19.80
2019-05-02T23:18:42.648Z,17.47
2019-05-02T23:21:25.219Z,14.97
2019-05-02T23:24:03.158Z,16.23
2019-05-02T23:29:42.555Z,14.23
2019-05-02T23:32:18.613Z,12.95
2019-05-02T23:35:02.127Z,16.62
2019-05-02T23:37:38.714Z,17.62
2019-05-02T23:47:42.216Z,13.53
2019-05-02T23:50:18.547Z,13.10
2019-05-02T23:53:02.288Z,13.30
2019-05-02T23:55:38.715Z,15.40
2019-05-02T23:58:22.629Z,14.87
